Time;durP1;ratioP1;P1;durP2;ratioP2;P2;SDS_P1;SDS_P2;PMS_P1;PMS_P2;Temp;Humidity;BMP_temperature;BMP_pressure;BME280_temperature;BME280_humidity;BME280_pressure;Samples;Min_cycle;Max_cycle;Signal;HPM_P1;HPM_P2
2024/02/04 00:00:50;;;;;;;121.13;78.88;;;;;;;;;;5030220;28;20506;-49
2024/02/04 00:03:16;;;;;;;118.47;75.25;;;;;;;;;;5031855;28;20026;-49
2024/02/04 00:05:43;;;;;;;117.22;73.30;;;;;;;;;;5031365;28;20056;-50
2024/02/04 00:08:09;;;;;;;118.38;78.38;;;;;;;;;;5030290;28;20120;-50
2024/02/04 00:10:35;;;;;;;115.20;75.03;;;;;;;;;;5031377;28;20033;-49
2024/02/04 00:13:01;;;;;;;119.40;75.50;;;;;;;;;;5031518;28;20034;-50
2024/02/04 00:15:28;;;;;;;107.65;71.40;;;;;;;;;;5027607;28;20276;-51
2024/02/04 00:17:54;;;;;;;106.50;67.10;;;;;;;;;;5029594;28;20360;-51
2024/02/04 00:20:20;;;;;;;109.47;73.85;;;;;;;;;;5029633;28;20032;-52
2024/02/04 00:22:46;;;;;;;117.35;71.60;;;;;;;;;;5030346;28;20022;-49
2024/02/04 00:25:14;;;;;;;110.15;70.95;;;;;;;;;;5030012;28;20033;-50
2024/02/04 00:27:41;;;;;;;111.25;72.50;;;;;;;;;;5030572;28;20057;-49
2024/02/04 00:30:07;;;;;;;108.38;71.75;;;;;;;;;;5030916;28;20038;-48
2024/02/04 00:32:33;;;;;;;103.53;71.22;;;;;;;;;;5026110;28;20558;-49
2024/02/04 00:34:59;;;;;;;106.50;71.65;;;;;;;;;;5029626;28;20029;-49
2024/02/04 00:37:26;;;;;;;101.65;72.78;;;;;;;;;;5033051;28;20024;-48
2024/02/04 00:39:52;;;;;;;105.15;70.10;;;;;;;;;;5014204;28;20084;-49
2024/02/04 00:42:18;;;;;;;105.22;66.97;;;;;;;;;;5019797;28;20028;-51
2024/02/04 00:44:44;;;;;;;111.20;66.53;;;;;;;;;;5034901;28;20056;-49
2024/02/04 00:47:10;;;;;;;105.05;69.93;;;;;;;;;;5033603;28;20025;-50
2024/02/04 00:49:37;;;;;;;113.80;71.97;;;;;;;;;;5033838;28;20483;-52
2024/02/04 00:52:03;;;;;;;114.22;74.10;;;;;;;;;;5034730;28;20013;-48
2024/02/04 00:54:29;;;;;;;118.10;73.40;;;;;;;;;;5034927;28;20021;-49
2024/02/04 00:56:57;;;;;;;103.25;68.78;;;;;;;;;;5033207;28;20043;-50
2024/02/04 00:59:23;;;;;;;109.57;69.03;;;;;;;;;;5050028;28;20033;-49
2024/02/04 01:01:50;;;;;;;116.67;73.00;;;;;;;;;;5033225;28;20033;-51
2024/02/04 01:04:16;;;;;;;105.40;71.68;;;;;;;;;;5033446;28;20021;-49
2024/02/04 01:06:42;;;;;;;112.65;77.40;;;;;;;;;;5034844;28;20042;-50
2024/02/04 01:09:08;;;;;;;113.18;74.20;;;;;;;;;;5034370;28;20216;-50
2024/02/04 01:11:34;;;;;;;111.47;73.18;;;;;;;;;;5034534;28;20025;-50
2024/02/04 01:14:01;;;;;;;118.77;77.23;;;;;;;;;;5033179;28;20107;-51
2024/02/04 01:16:27;;;;;;;105.65;71.88;;;;;;;;;;5033063;28;20039;-51
2024/02/04 01:18:53;;;;;;;115.07;74.63;;;;;;;;;;5034486;28;20029;-50
2024/02/04 01:21:20;;;;;;;110.43;74.63;;;;;;;;;;5033156;28;20079;-51
2024/02/04 01:23:46;;;;;;;93.23;65.37;;;;;;;;;;5034244;28;20026;-51
2024/02/04 01:26:12;;;;;;;95.65;66.70;;;;;;;;;;5032715;28;20039;-49
2024/02/04 01:28:38;;;;;;;132.25;57.20;;;;;;;;;;5033430;28;20095;-49
2024/02/04 01:31:04;;;;;;;228.77;63.40;;;;;;;;;;5033033;28;20405;-48
2024/02/04 01:33:31;;;;;;;79.53;58.43;;;;;;;;;;5032781;28;20028;-49
2024/02/04 01:35:58;;;;;;;75.10;54.25;;;;;;;;;;5033939;28;20072;-50
2024/02/04 01:38:24;;;;;;;79.10;57.38;;;;;;;;;;5064651;28;20091;-48
2024/02/04 01:40:52;;;;;;;70.10;51.13;;;;;;;;;;5033134;28;20056;-50
2024/02/04 01:43:21;;;;;;;85.22;57.28;;;;;;;;;;5032365;28;20028;-47
2024/02/04 01:45:47;;;;;;;71.82;53.90;;;;;;;;;;5034024;28;20379;-49
2024/02/04 01:48:15;;;;;;;76.47;56.05;;;;;;;;;;5032197;28;20398;-48
2024/02/04 01:50:42;;;;;;;72.20;51.28;;;;;;;;;;5033958;28;20073;-49
2024/02/04 01:53:08;;;;;;;83.80;55.13;;;;;;;;;;5032528;28;20235;-49
2024/02/04 01:55:35;;;;;;;105.90;68.85;;;;;;;;;;5032342;28;20037;-49
2024/02/04 01:58:02;;;;;;;78.15;55.38;;;;;;;;;;5032526;28;20078;-49
2024/02/04 02:00:28;;;;;;;79.57;56.05;;;;;;;;;;5033846;28;20021;-51
2024/02/04 02:02:56;;;;;;;77.50;55.55;;;;;;;;;;5032481;28;20120;-50
2024/02/04 02:05:22;;;;;;;72.70;53.55;;;;;;;;;;5033820;28;20094;-49
2024/02/04 02:07:51;;;;;;;80.03;56.83;;;;;;;;;;5033826;28;20125;-50
2024/02/04 02:10:18;;;;;;;80.80;56.72;;;;;;;;;;5032224;28;20087;-50
2024/02/04 02:12:49;;;;;;;79.60;54.53;;;;;;;;;;5032097;28;20099;-49
2024/02/04 02:15:22;;;;;;;80.05;55.33;;;;;;;;;;5033118;28;20045;-49
2024/02/04 02:17:54;;;;;;;85.18;59.67;;;;;;;;;;5032067;28;20478;-49
2024/02/04 02:20:24;;;;;;;89.78;60.42;;;;;;;;;;5048882;28;20509;-49
2024/02/04 02:23:01;;;;;;;89.20;60.13;;;;;;;;;;5045644;28;20113;-50
2024/02/04 02:25:27;;;;;;;78.90;55.17;;;;;;;;;;5033110;28;20072;-49
2024/02/04 02:27:54;;;;;;;78.53;54.88;;;;;;;;;;5033100;28;20029;-48
2024/02/04 02:30:20;;;;;;;81.40;58.35;;;;;;;;;;5033481;28;20112;-49
2024/02/04 02:32:49;;;;;;;82.32;56.45;;;;;;;;;;5032032;28;20037;-48
2024/02/04 02:35:16;;;;;;;102.65;66.90;;;;;;;;;;5032935;28;20120;-48
2024/02/04 02:37:42;;;;;;;108.70;71.45;;;;;;;;;;5065114;28;20512;-48
2024/02/04 02:40:27;;;;;;;107.28;70.22;;;;;;;;;;5033282;28;20072;-49
2024/02/04 02:42:54;;;;;;;92.00;63.90;;;;;;;;;;5031596;28;20057;-50
2024/02/04 02:45:22;;;;;;;59.72;44.35;;;;;;;;;;5031168;28;20034;-50
2024/02/04 02:47:49;;;;;;;70.85;48.83;;;;;;;;;;5032806;28;20026;-49
2024/02/04 02:50:15;;;;;;;;;;;;;;;;;;5033338;28;20108;-50
2024/02/04 02:52:42;;;;;;;82.47;52.05;;;;;;;;;;5031534;28;19909;-48
2024/02/04 02:55:08;;;;;;;89.30;57.15;;;;;;;;;;5031020;28;20037;-48
2024/02/04 02:57:34;;;;;;;64.78;47.92;;;;;;;;;;5031274;28;20026;-50
2024/02/04 03:00:00;;;;;;;71.45;52.60;;;;;;;;;;5030397;28;20036;-52
2024/02/04 03:02:27;;;;;;;73.88;51.75;;;;;;;;;;5031075;28;20075;-50
2024/02/04 03:04:53;;;;;;;65.97;48.40;;;;;;;;;;5031445;28;20025;-49
2024/02/04 03:07:19;;;;;;;85.90;56.97;;;;;;;;;;5032455;28;20252;-49
2024/02/04 03:09:45;;;;;;;73.10;49.72;;;;;;;;;;5032354;28;20085;-50
2024/02/04 03:12:12;;;;;;;66.20;48.07;;;;;;;;;;5031180;28;20017;-49
2024/02/04 03:14:38;;;;;;;76.10;52.28;;;;;;;;;;5030403;28;20171;-47
2024/02/04 03:17:04;;;;;;;88.27;57.70;;;;;;;;;;5031029;28;20026;-50
2024/02/04 03:19:30;;;;;;;85.03;57.57;;;;;;;;;;5031881;28;20100;-48
2024/02/04 03:21:57;;;;;;;79.72;53.33;;;;;;;;;;5032307;28;20087;-49
2024/02/04 03:24:23;;;;;;;86.50;57.75;;;;;;;;;;5031958;28;20032;-49
2024/02/04 03:26:49;;;;;;;93.75;63.78;;;;;;;;;;5030814;28;20033;-51
2024/02/04 03:29:15;;;;;;;104.97;69.25;;;;;;;;;;5030656;28;20112;-53
2024/02/04 03:31:42;;;;;;;89.00;59.43;;;;;;;;;;5030552;28;20025;-48
2024/02/04 03:34:08;;;;;;;83.63;53.87;;;;;;;;;;5047090;28;20025;-48
2024/02/04 03:36:34;;;;;;;83.57;55.67;;;;;;;;;;5014194;28;20040;-50
2024/02/04 03:39:01;;;;;;;105.28;67.35;;;;;;;;;;5063941;28;20256;-48
2024/02/04 03:41:27;;;;;;;100.63;63.47;;;;;;;;;;5030738;28;20087;-49
2024/02/04 03:43:55;;;;;;;90.80;59.17;;;;;;;;;;5030478;28;20022;-49
2024/02/04 03:46:21;;;;;;;93.40;61.08;;;;;;;;;;5021298;28;20394;-50
2024/02/04 03:48:48;;;;;;;97.37;62.40;;;;;;;;;;5031815;28;20031;-49
2024/02/04 03:51:18;;;;;;;107.78;69.18;;;;;;;;;;5031472;28;20030;-51
2024/02/04 03:53:45;;;;;;;102.30;65.53;;;;;;;;;;5030013;28;20083;-49
2024/02/04 03:56:11;;;;;;;79.43;54.80;;;;;;;;;;5031585;28;20045;-48
2024/02/04 03:58:38;;;;;;;97.65;62.33;;;;;;;;;;5030667;28;20070;-48
2024/02/04 04:01:04;;;;;;;100.05;65.72;;;;;;;;;;5031285;28;20363;-48
2024/02/04 04:03:30;;;;;;;91.97;61.22;;;;;;;;;;5031617;28;20387;-49
2024/02/04 04:05:58;;;;;;;98.07;65.05;;;;;;;;;;5031372;28;20029;-50
2024/02/04 04:08:24;;;;;;;106.40;67.95;;;;;;;;;;5031602;28;20026;-48
2024/02/04 04:10:50;;;;;;;87.57;58.33;;;;;;;;;;5029860;28;20477;-52
2024/02/04 04:13:17;;;;;;;88.80;59.15;;;;;;;;;;5031433;28;20649;-50
2024/02/04 04:15:43;;;;;;;91.15;59.15;;;;;;;;;;5030905;28;20458;-50
2024/02/04 04:18:12;;;;;;;95.57;61.72;;;;;;;;;;5031575;28;20041;-48
2024/02/04 04:20:38;;;;;;;86.47;57.22;;;;;;;;;;5031496;28;20051;-48
2024/02/04 04:23:05;;;;;;;80.68;54.45;;;;;;;;;;5031394;28;20057;-50
2024/02/04 04:25:31;;;;;;;70.75;50.15;;;;;;;;;;5044981;28;20506;-49
2024/02/04 04:27:58;;;;;;;67.37;48.47;;;;;;;;;;5031179;28;20376;-47
2024/02/04 04:30:24;;;;;;;71.85;48.58;;;;;;;;;;5031982;28;20266;-50
2024/02/04 04:32:50;;;;;;;67.83;46.23;;;;;;;;;;5031129;28;20531;-49
2024/02/04 04:35:16;;;;;;;70.63;47.67;;;;;;;;;;5031104;28;20307;-48
2024/02/04 04:37:43;;;;;;;66.90;47.53;;;;;;;;;;5031128;28;20402;-50
2024/02/04 04:40:09;;;;;;;73.43;47.05;;;;;;;;;;5031093;28;20025;-49
2024/02/04 04:42:36;;;;;;;70.38;50.95;;;;;;;;;;5031490;28;20025;-49
2024/02/04 04:45:02;;;;;;;67.73;47.37;;;;;;;;;;5031298;28;20024;-49
2024/02/04 04:47:28;;;;;;;69.77;47.77;;;;;;;;;;5030698;28;20029;-49
2024/02/04 04:49:54;;;;;;;77.68;49.10;;;;;;;;;;5029999;28;20028;-49
2024/02/04 04:52:20;;;;;;;109.57;50.13;;;;;;;;;;5029565;28;20029;-48
2024/02/04 04:54:47;;;;;;;110.97;53.38;;;;;;;;;;5030054;28;20498;-49
2024/02/04 04:57:13;;;;;;;200.87;59.07;;;;;;;;;;5030715;28;20560;-48
2024/02/04 04:59:40;;;;;;;82.07;49.85;;;;;;;;;;5029230;28;20049;-49
2024/02/04 05:02:06;;;;;;;136.20;50.97;;;;;;;;;;5028846;28;20022;-48
2024/02/04 05:04:32;;;;;;;76.90;50.13;;;;;;;;;;5029137;28;20056;-51
2024/02/04 05:06:59;;;;;;;69.03;48.10;;;;;;;;;;5029366;28;20382;-50
2024/02/04 05:09:25;;;;;;;71.28;49.10;;;;;;;;;;5029361;28;20079;-49
2024/02/04 05:11:51;;;;;;;69.97;49.40;;;;;;;;;;5028576;28;20037;-49
2024/02/04 05:14:17;;;;;;;65.53;46.47;;;;;;;;;;5029334;28;20026;-48
2024/02/04 05:16:45;;;;;;;64.60;45.80;;;;;;;;;;5030724;28;20025;-49
2024/02/04 05:19:11;;;;;;;;;;;;;;;;;;5031342;28;20037;-49
2024/02/04 05:21:41;;;;;;;55.78;40.10;;;;;;;;;;5031027;28;19909;-49
2024/02/04 05:24:07;;;;;;;58.22;41.60;;;;;;;;;;5033559;28;20030;-49
2024/02/04 05:26:33;;;;;;;59.27;43.90;;;;;;;;;;5066406;28;20033;-49
2024/02/04 05:28:59;;;;;;;55.35;41.95;;;;;;;;;;5034532;28;20502;-49
2024/02/04 05:31:25;;;;;;;56.58;43.03;;;;;;;;;;5034037;28;20037;-49
2024/02/04 05:33:53;;;;;;;55.83;41.70;;;;;;;;;;5034279;28;20041;-49
2024/02/04 05:36:19;;;;;;;61.25;45.33;;;;;;;;;;5034152;28;20398;-48
2024/02/04 05:38:46;;;;;;;212.43;55.17;;;;;;;;;;5033383;28;20033;-49
2024/02/04 05:41:12;;;;;;;269.35;65.82;;;;;;;;;;5034653;28;20080;-49
2024/02/04 05:43:39;;;;;;;272.42;65.82;;;;;;;;;;5034326;28;20052;-51
2024/02/04 05:46:05;;;;;;;;;;;;;;;;;;5034627;28;20479;-51
2024/02/04 05:48:31;;;;;;;167.95;55.28;;;;;;;;;;5034356;28;19913;-50
2024/02/04 05:50:57;;;;;;;60.13;37.90;;;;;;;;;;5034167;28;20029;-48
2024/02/04 05:53:24;;;;;;;65.55;47.17;;;;;;;;;;5034187;28;20033;-49
2024/02/04 05:55:50;;;;;;;63.75;48.10;;;;;;;;;;5034053;28;20072;-49
2024/02/04 05:58:16;;;;;;;68.13;47.07;;;;;;;;;;5033028;28;20022;-49
2024/02/04 06:00:42;;;;;;;65.77;47.03;;;;;;;;;;5033033;28;20597;-52
2024/02/04 06:03:09;;;;;;;66.83;47.80;;;;;;;;;;5034104;28;20375;-49
2024/02/04 06:05:35;;;;;;;79.53;47.72;;;;;;;;;;5033501;28;20021;-51
2024/02/04 06:08:01;;;;;;;93.38;51.42;;;;;;;;;;5033908;28;20492;-47
2024/02/04 06:10:27;;;;;;;80.93;53.40;;;;;;;;;;5033974;28;20045;-49
2024/02/04 06:12:53;;;;;;;85.32;50.40;;;;;;;;;;5033574;28;20525;-49
2024/02/04 06:15:21;;;;;;;236.10;66.50;;;;;;;;;;5032954;28;20509;-51
2024/02/04 06:17:47;;;;;;;198.90;62.13;;;;;;;;;;5032289;28;20021;-50
2024/02/04 06:20:13;;;;;;;99.77;52.00;;;;;;;;;;5033374;28;20120;-50
2024/02/04 06:22:39;;;;;;;90.50;52.60;;;;;;;;;;5033571;28;20033;-48
2024/02/04 06:25:06;;;;;;;70.43;48.90;;;;;;;;;;5033269;28;20029;-47
2024/02/04 06:27:32;;;;;;;68.00;48.10;;;;;;;;;;5033279;28;20028;-49
2024/02/04 06:29:58;;;;;;;73.63;48.00;;;;;;;;;;5033568;28;20021;-49
2024/02/04 06:32:24;;;;;;;64.97;48.17;;;;;;;;;;5033333;28;20255;-50
2024/02/04 06:34:51;;;;;;;66.40;45.87;;;;;;;;;;5031604;28;20030;-48
2024/02/04 06:37:17;;;;;;;63.75;47.63;;;;;;;;;;5032051;28;20017;-50
2024/02/04 06:39:43;;;;;;;62.78;46.78;;;;;;;;;;5033058;28;20705;-48
2024/02/04 06:42:10;;;;;;;64.03;46.58;;;;;;;;;;5032921;28;20421;-51
2024/02/04 06:44:36;;;;;;;57.53;44.13;;;;;;;;;;5033098;28;20021;-51
2024/02/04 06:47:02;;;;;;;58.17;45.35;;;;;;;;;;5032549;28;20064;-48
2024/02/04 06:49:28;;;;;;;61.80;47.05;;;;;;;;;;5033021;28;20025;-50
2024/02/04 06:51:56;;;;;;;56.60;43.93;;;;;;;;;;5063569;28;20029;-51
2024/02/04 06:54:26;;;;;;;60.13;45.67;;;;;;;;;;5031625;28;20474;-50
2024/02/04 06:56:55;;;;;;;57.88;43.75;;;;;;;;;;5032821;28;20029;-51
2024/02/04 06:59:21;;;;;;;61.53;45.55;;;;;;;;;;5032943;28;20029;-51
2024/02/04 07:01:47;;;;;;;58.77;44.57;;;;;;;;;;5065062;28;20021;-50
2024/02/04 07:04:13;;;;;;;57.97;45.35;;;;;;;;;;5032490;28;20108;-53
2024/02/04 07:06:40;;;;;;;64.15;47.88;;;;;;;;;;5032880;28;20033;-52
2024/02/04 07:09:06;;;;;;;69.57;51.43;;;;;;;;;;5032671;28;20021;-52
2024/02/04 07:11:33;;;;;;;74.25;51.88;;;;;;;;;;5032366;28;20105;-50
2024/02/04 07:14:00;;;;;;;84.03;59.15;;;;;;;;;;5032217;28;20033;-49
2024/02/04 07:16:26;;;;;;;78.70;54.50;;;;;;;;;;5032412;28;20056;-50
2024/02/04 07:18:52;;;;;;;73.72;52.30;;;;;;;;;;5032898;28;20064;-50
2024/02/04 07:21:19;;;;;;;77.43;55.10;;;;;;;;;;5035144;28;20014;-54
2024/02/04 07:23:45;;;;;;;77.38;53.35;;;;;;;;;;5032633;28;20026;-54
2024/02/04 07:26:12;;;;;;;79.45;55.30;;;;;;;;;;5030656;28;20025;-52
2024/02/04 07:28:38;;;;;;;89.70;59.33;;;;;;;;;;5064290;28;20036;-56
2024/02/04 07:31:04;;;;;;;71.35;52.63;;;;;;;;;;5032009;28;20040;-52
2024/02/04 07:33:30;;;;;;;74.70;51.93;;;;;;;;;;5038821;28;20111;-51
2024/02/04 07:35:56;;;;;;;69.27;49.50;;;;;;;;;;5044240;28;20548;-51
2024/02/04 07:38:23;;;;;;;62.92;47.10;;;;;;;;;;5044435;28;20033;-54
2024/02/04 07:40:49;;;;;;;67.32;48.63;;;;;;;;;;5041465;28;20036;-51
2024/02/04 07:43:15;;;;;;;56.00;41.53;;;;;;;;;;5033443;28;20456;-55
2024/02/04 07:45:41;;;;;;;91.32;62.75;;;;;;;;;;5034267;28;20132;-55
2024/02/04 07:48:09;;;;;;;104.18;65.35;;;;;;;;;;5037898;28;20107;-51
2024/02/04 07:50:35;;;;;;;83.75;55.47;;;;;;;;;;5043561;28;20030;-56
2024/02/04 07:53:01;;;;;;;84.63;56.55;;;;;;;;;;5038993;28;20421;-49
2024/02/04 07:55:27;;;;;;;103.97;60.65;;;;;;;;;;5035651;28;20064;-49
2024/02/04 07:57:54;;;;;;;83.95;56.13;;;;;;;;;;5039417;28;20486;-50
2024/02/04 08:00:20;;;;;;;73.75;52.20;;;;;;;;;;5045557;28;20029;-48
2024/02/04 08:02:46;;;;;;;67.95;50.78;;;;;;;;;;5034268;28;20482;-50
2024/02/04 08:05:13;;;;;;;82.88;56.25;;;;;;;;;;5037846;28;20379;-47
2024/02/04 08:07:40;;;;;;;88.28;61.58;;;;;;;;;;5041074;28;20136;-53
2024/02/04 08:10:07;;;;;;;84.22;56.78;;;;;;;;;;5044060;28;20108;-48
2024/02/04 08:12:33;;;;;;;81.65;56.05;;;;;;;;;;5048947;28;20035;-48
2024/02/04 08:14:59;;;;;;;80.90;56.00;;;;;;;;;;5043507;28;20033;-48
2024/02/04 08:17:26;;;;;;;81.57;57.22;;;;;;;;;;5042643;28;20282;-51
2024/02/04 08:19:52;;;;;;;90.13;61.30;;;;;;;;;;5044397;28;20025;-50
2024/02/04 08:22:19;;;;;;;86.78;60.40;;;;;;;;;;5031756;28;20086;-49
2024/02/04 08:24:46;;;;;;;88.10;60.53;;;;;;;;;;5037430;28;20039;-49
2024/02/04 08:27:15;;;;;;;105.70;62.75;;;;;;;;;;5036791;28;20033;-52
2024/02/04 08:29:42;;;;;;;100.95;68.20;;;;;;;;;;5034729;28;20048;-46
2024/02/04 08:32:09;;;;;;;117.47;72.20;;;;;;;;;;5035443;28;20022;-49
2024/02/04 08:34:35;;;;;;;119.68;74.10;;;;;;;;;;5036694;28;20028;-52
2024/02/04 08:37:03;;;;;;;118.82;77.93;;;;;;;;;;5037025;28;20021;-51
2024/02/04 08:39:30;;;;;;;131.05;85.97;;;;;;;;;;5036559;28;20104;-48
2024/02/04 08:41:56;;;;;;;137.38;87.35;;;;;;;;;;5037290;28;20029;-51
2024/02/04 08:44:22;;;;;;;122.82;78.30;;;;;;;;;;5036422;28;20025;-49
2024/02/04 08:46:49;;;;;;;117.82;76.53;;;;;;;;;;5043625;28;20159;-49
2024/02/04 08:49:15;;;;;;;115.63;78.00;;;;;;;;;;5042373;28;20106;-49
2024/02/04 08:51:41;;;;;;;121.55;77.00;;;;;;;;;;5038280;28;20041;-49
2024/02/04 08:54:08;;;;;;;127.00;82.50;;;;;;;;;;5039534;28;20030;-48
2024/02/04 08:56:34;;;;;;;175.68;86.85;;;;;;;;;;5036464;28;20025;-52
2024/02/04 08:59:01;;;;;;;135.13;82.60;;;;;;;;;;5040037;28;20032;-53
2024/02/04 09:01:27;;;;;;;;;;;;;;;;;;5047686;28;20025;-49
2024/02/04 09:03:53;;;;;;;131.57;83.95;;;;;;;;;;5041950;28;20292;-49
2024/02/04 09:06:20;;;;;;;142.93;86.68;;;;;;;;;;5035023;28;20032;-50
2024/02/04 09:08:47;;;;;;;143.13;90.47;;;;;;;;;;5035169;28;20025;-49
2024/02/04 09:11:18;;;;;;;145.25;91.97;;;;;;;;;;5038886;28;20029;-49
2024/02/04 09:13:47;;;;;;;142.68;91.22;;;;;;;;;;5043620;28;20032;-51
2024/02/04 09:16:13;;;;;;;153.38;97.63;;;;;;;;;;5045789;28;20033;-50
2024/02/04 09:18:40;;;;;;;146.40;93.90;;;;;;;;;;5045834;28;20030;-49
2024/02/04 09:21:06;;;;;;;152.52;100.50;;;;;;;;;;5035590;28;20018;-50
2024/02/04 09:23:32;;;;;;;145.25;94.85;;;;;;;;;;5037375;28;20029;-51
2024/02/04 09:25:58;;;;;;;146.82;95.45;;;;;;;;;;5044494;28;20098;-51
2024/02/04 09:28:24;;;;;;;149.43;94.18;;;;;;;;;;5047214;28;20070;-51
2024/02/04 09:30:51;;;;;;;157.88;96.53;;;;;;;;;;5042751;28;20025;-47
2024/02/04 09:33:17;;;;;;;143.93;92.68;;;;;;;;;;5040624;28;20029;-50
2024/02/04 09:35:43;;;;;;;140.50;95.20;;;;;;;;;;5040291;28;20033;-50
2024/02/04 09:38:09;;;;;;;141.80;96.33;;;;;;;;;;5038800;28;20084;-50
2024/02/04 09:40:37;;;;;;;137.50;93.72;;;;;;;;;;5038422;28;20490;-49
2024/02/04 09:43:03;;;;;;;142.95;92.50;;;;;;;;;;5041806;28;20036;-49
2024/02/04 09:45:30;;;;;;;146.02;97.72;;;;;;;;;;5042272;28;20025;-49
2024/02/04 09:47:57;;;;;;;141.95;93.40;;;;;;;;;;5040538;28;20036;-52
2024/02/04 09:50:23;;;;;;;134.52;88.55;;;;;;;;;;5046058;28;20031;-48
2024/02/04 09:52:52;;;;;;;135.20;89.53;;;;;;;;;;5046270;28;20124;-49
2024/02/04 09:55:23;;;;;;;129.80;89.63;;;;;;;;;;5044744;28;20498;-49
2024/02/04 09:57:49;;;;;;;148.25;100.57;;;;;;;;;;5034629;28;20057;-48
2024/02/04 10:00:19;;;;;;;135.20;96.97;;;;;;;;;;5034317;28;20028;-49
2024/02/04 10:02:45;;;;;;;132.80;90.13;;;;;;;;;;5034160;28;20024;-48
2024/02/04 10:05:12;;;;;;;121.90;86.10;;;;;;;;;;5032811;28;20478;-49
2024/02/04 10:07:38;;;;;;;137.73;95.85;;;;;;;;;;5034378;28;20044;-50
2024/02/04 10:10:05;;;;;;;135.63;95.27;;;;;;;;;;5033753;28;20033;-50
2024/02/04 10:12:31;;;;;;;131.32;94.82;;;;;;;;;;5032728;28;20836;-49
2024/02/04 10:14:59;;;;;;;132.93;90.65;;;;;;;;;;5033553;28;20038;-50
2024/02/04 10:17:25;;;;;;;137.00;91.57;;;;;;;;;;5015913;28;20476;-47
2024/02/04 10:19:52;;;;;;;122.55;88.85;;;;;;;;;;5032521;28;20021;-48
2024/02/04 10:22:19;;;;;;;123.22;88.85;;;;;;;;;;5033888;28;20026;-47
2024/02/04 10:24:48;;;;;;;121.15;85.28;;;;;;;;;;5033590;28;20025;-50
2024/02/04 10:27:15;;;;;;;124.68;87.25;;;;;;;;;;5032199;28;20033;-50
2024/02/04 10:29:42;;;;;;;121.30;88.72;;;;;;;;;;5034105;28;20025;-48
2024/02/04 10:32:08;;;;;;;127.05;89.22;;;;;;;;;;5031444;28;20556;-51
2024/02/04 10:34:38;;;;;;;129.13;89.13;;;;;;;;;;5032191;28;20087;-48
2024/02/04 10:37:04;;;;;;;121.65;87.97;;;;;;;;;;5033132;28;20029;-52
2024/02/04 10:39:30;;;;;;;122.05;84.30;;;;;;;;;;5032170;28;20080;-49
2024/02/04 10:42:03;;;;;;;117.68;84.65;;;;;;;;;;5033559;28;20043;-49
2024/02/04 10:44:31;;;;;;;119.25;82.90;;;;;;;;;;5032387;28;20091;-49
2024/02/04 10:46:58;;;;;;;118.65;83.55;;;;;;;;;;5032139;28;20029;-50
2024/02/04 10:49:26;;;;;;;116.20;84.53;;;;;;;;;;5033408;28;20434;-49
2024/02/04 10:51:56;;;;;;;116.80;83.82;;;;;;;;;;5033446;28;20454;-51
2024/02/04 10:54:24;;;;;;;117.72;85.57;;;;;;;;;;5033159;28;20098;-49
2024/02/04 10:56:55;;;;;;;121.85;82.00;;;;;;;;;;5031915;28;20070;-52
2024/02/04 10:59:21;;;;;;;109.85;77.53;;;;;;;;;;5031917;28;20401;-50
2024/02/04 11:01:51;;;;;;;113.78;78.55;;;;;;;;;;5033129;28;20043;-51
2024/02/04 11:04:18;;;;;;;107.85;79.00;;;;;;;;;;5032852;28;20034;-49
2024/02/04 11:06:45;;;;;;;107.13;80.45;;;;;;;;;;5031506;28;20033;-48
2024/02/04 11:09:12;;;;;;;105.88;74.95;;;;;;;;;;5031654;28;20033;-50
2024/02/04 11:11:38;;;;;;;;;;;;;;;;;;5033267;28;20474;-49
2024/02/04 11:14:07;;;;;;;96.70;67.50;;;;;;;;;;5032819;28;19962;-52
2024/02/04 11:16:39;;;;;;;102.57;74.30;;;;;;;;;;5032398;28;20036;-49
2024/02/04 11:19:06;;;;;;;102.40;71.63;;;;;;;;;;5031578;28;20029;-51
2024/02/04 11:21:42;;;;;;;95.10;68.22;;;;;;;;;;5032242;28;20053;-47
2024/02/04 11:24:15;;;;;;;95.57;66.30;;;;;;;;;;5031333;28;20025;-50
2024/02/04 11:26:42;;;;;;;98.28;70.63;;;;;;;;;;5032627;28;20083;-49
2024/02/04 11:29:10;;;;;;;91.47;62.85;;;;;;;;;;5032663;28;20025;-48
2024/02/04 11:31:39;;;;;;;90.60;65.15;;;;;;;;;;5032500;28;20613;-51
2024/02/04 11:34:06;;;;;;;91.22;67.55;;;;;;;;;;5032413;28;20021;-53
2024/02/04 11:36:38;;;;;;;96.40;64.57;;;;;;;;;;5032237;28;20038;-51
2024/02/04 11:39:14;;;;;;;86.68;62.17;;;;;;;;;;5031083;28;20036;-49
2024/02/04 11:41:47;;;;;;;81.80;57.63;;;;;;;;;;5032492;28;20026;-51
2024/02/04 11:44:20;;;;;;;76.35;49.55;;;;;;;;;;5030944;28;20040;-51
2024/02/04 11:46:47;;;;;;;79.32;56.60;;;;;;;;;;5032149;28;20030;-49
2024/02/04 11:49:17;;;;;;;72.13;51.70;;;;;;;;;;5032285;28;20662;-50
2024/02/04 11:51:51;;;;;;;70.55;51.38;;;;;;;;;;5031617;28;20033;-51
2024/02/04 11:54:21;;;;;;;65.63;47.50;;;;;;;;;;5031154;28;20109;-52
2024/02/04 11:56:56;;;;;;;65.00;44.47;;;;;;;;;;5044015;28;20034;-52
2024/02/04 11:59:26;;;;;;;59.58;43.97;;;;;;;;;;5027736;28;20509;-49
2024/02/04 12:01:56;;;;;;;52.42;40.80;;;;;;;;;;5026811;28;20445;-50
2024/02/04 12:04:23;;;;;;;60.03;42.17;;;;;;;;;;5030176;28;20027;-52
2024/02/04 12:06:51;;;;;;;57.55;41.60;;;;;;;;;;5031674;28;20486;-50
2024/02/04 12:09:22;;;;;;;50.80;37.83;;;;;;;;;;5031399;28;20494;-49
2024/02/04 12:11:48;;;;;;;51.38;38.42;;;;;;;;;;5031215;28;20076;-48
2024/02/04 12:14:15;;;;;;;54.67;38.15;;;;;;;;;;5029755;28;20048;-48
2024/02/04 12:16:42;;;;;;;50.47;37.55;;;;;;;;;;5030735;28;20037;-47
2024/02/04 12:19:08;;;;;;;49.08;34.95;;;;;;;;;;5032079;28;20029;-49
2024/02/04 12:21:36;;;;;;;52.10;34.43;;;;;;;;;;5029857;28;20499;-47
2024/02/04 12:24:02;;;;;;;46.50;31.98;;;;;;;;;;5029977;28;20490;-48
2024/02/04 12:26:28;;;;;;;46.75;35.28;;;;;;;;;;5031456;28;20042;-49
2024/02/04 12:28:55;;;;;;;47.75;36.00;;;;;;;;;;5031288;28;20032;-49
2024/02/04 12:31:22;;;;;;;49.85;37.58;;;;;;;;;;5031217;28;20494;-48
2024/02/04 12:33:58;;;;;;;47.17;34.10;;;;;;;;;;5035227;28;20017;-51
2024/02/04 12:36:26;;;;;;;44.92;31.30;;;;;;;;;;5035132;28;20021;-49
2024/02/04 12:38:56;;;;;;;47.30;34.50;;;;;;;;;;5033847;28;20026;-50
2024/02/04 12:41:22;;;;;;;45.17;32.50;;;;;;;;;;5031683;28;20760;-48
2024/02/04 12:43:52;;;;;;;41.85;33.13;;;;;;;;;;5035122;28;20132;-49
2024/02/04 12:46:19;;;;;;;42.78;30.38;;;;;;;;;;5035152;28;20060;-48
2024/02/04 12:48:45;;;;;;;48.00;31.38;;;;;;;;;;5034087;28;20367;-49
2024/02/04 12:51:11;;;;;;;47.63;35.90;;;;;;;;;;5035226;28;20033;-51
2024/02/04 12:53:38;;;;;;;39.92;28.33;;;;;;;;;;5033423;28;20517;-50
2024/02/04 12:56:04;;;;;;;32.40;24.10;;;;;;;;;;5034356;28;20037;-48
2024/02/04 12:58:31;;;;;;;27.48;23.52;;;;;;;;;;5035163;28;20112;-51
2024/02/04 13:01:01;;;;;;;33.88;24.15;;;;;;;;;;5033444;28;20018;-51
2024/02/04 13:03:27;;;;;;;33.67;24.70;;;;;;;;;;5033355;28;20501;-48
2024/02/04 13:05:58;;;;;;;30.48;22.95;;;;;;;;;;5034782;28;20034;-50
2024/02/04 13:08:24;;;;;;;33.35;22.88;;;;;;;;;;5034938;28;20029;-51
2024/02/04 13:10:57;;;;;;;31.45;23.48;;;;;;;;;;5034924;28;20084;-50
2024/02/04 13:13:28;;;;;;;33.00;23.15;;;;;;;;;;5031633;28;20478;-50
2024/02/04 13:15:56;;;;;;;32.25;23.20;;;;;;;;;;5031270;28;20029;-48
2024/02/04 13:18:22;;;;;;;30.55;24.08;;;;;;;;;;5032738;28;20101;-50
2024/02/04 13:20:48;;;;;;;27.47;22.67;;;;;;;;;;5032777;28;20051;-48
2024/02/04 13:23:14;;;;;;;31.33;23.52;;;;;;;;;;5033089;28;20018;-49
2024/02/04 13:25:41;;;;;;;29.60;22.57;;;;;;;;;;5033046;28;20069;-49
2024/02/04 13:28:07;;;;;;;29.27;22.45;;;;;;;;;;5033152;28;20116;-48
2024/02/04 13:30:34;;;;;;;26.97;19.80;;;;;;;;;;5032485;28;20043;-50
2024/02/04 13:33:01;;;;;;;30.20;21.58;;;;;;;;;;5032905;28;20025;-48
2024/02/04 13:35:27;;;;;;;27.05;20.60;;;;;;;;;;5032226;28;20506;-52
2024/02/04 13:37:55;;;;;;;28.25;22.42;;;;;;;;;;5034329;28;20079;-48
2024/02/04 13:40:24;;;;;;;30.08;20.55;;;;;;;;;;5032909;28;20102;-49
2024/02/04 13:42:50;;;;;;;27.98;22.10;;;;;;;;;;5032792;28;20057;-49
2024/02/04 13:45:17;;;;;;;34.65;21.80;;;;;;;;;;5030717;28;20029;-51
2024/02/04 13:47:43;;;;;;;28.90;22.03;;;;;;;;;;5064419;28;20033;-48
2024/02/04 13:50:10;;;;;;;30.73;21.67;;;;;;;;;;5032205;28;20018;-48
2024/02/04 13:52:36;;;;;;;;;;;;;;;;;;5031933;28;20036;-52
2024/02/04 13:55:09;;;;;;;28.40;21.83;;;;;;;;;;5032992;28;19905;-49
2024/02/04 13:57:36;;;;;;;27.90;21.40;;;;;;;;;;5013033;28;20046;-49
2024/02/04 14:00:05;;;;;;;28.42;22.30;;;;;;;;;;5017835;28;20489;-48
2024/02/04 14:02:32;;;;;;;31.17;22.05;;;;;;;;;;5031400;28;20647;-48
2024/02/04 14:04:58;;;;;;;27.13;20.93;;;;;;;;;;5032683;28;20021;-52
2024/02/04 14:07:26;;;;;;;24.33;19.88;;;;;;;;;;5032316;28;20037;-51
2024/02/04 14:09:52;;;;;;;29.40;22.02;;;;;;;;;;5031320;28;20044;-51
2024/02/04 14:12:18;;;;;;;30.90;21.35;;;;;;;;;;5031914;28;20046;-52